sensor_id;sensor_type;location;lat;lon;timestamp;temperature;humidity
26990;DHT22;14537;47.788;11.858;2023-03-01T00:01:33;-1.00;99.90
26990;DHT22;14537;47.788;11.858;2023-03-01T00:04:00;-1.00;99.90
26990;DHT22;14537;47.788;11.858;2023-03-01T00:06:26;-1.00;99.90
26990;DHT22;14537;47.788;11.858;2023-03-01T00:08:52;-1.00;99.90
26990;DHT22;14537;47.788;11.858;2023-03-01T00:13:46;-1.00;99.90
26990;DHT22;14537;47.788;11.858;2023-03-01T00:16:18;-1.00;99.90
26990;DHT22;14537;47.788;11.858;2023-03-01T00:18:45;-1.00;99.90
26990;DHT22;14537;47.788;11.858;2023-03-01T00:21:10;-1.00;99.90
26990;DHT22;14537;47.788;11.858;2023-03-01T00:23:37;-1.00;99.90
26990;DHT22;14537;47.788;11.858;2023-03-01T00:26:06;-1.00;99.90
26990;DHT22;14537;47.788;11.858;2023-03-01T00:28:32;-0.90;99.90
26990;DHT22;14537;47.788;11.858;2023-03-01T00:31:04;-0.90;99.90
26990;DHT22;14537;47.788;11.858;2023-03-01T00:33:29;-0.90;99.90
26990;DHT22;14537;47.788;11.858;2023-03-01T00:35:58;-0.90;99.90
26990;DHT22;14537;47.788;11.858;2023-03-01T00:38:23;-0.90;99.90
26990;DHT22;14537;47.788;11.858;2023-03-01T00:40:49;-1.00;99.90
26990;DHT22;14537;47.788;11.858;2023-03-01T00:43:14;-1.00;99.90
26990;DHT22;14537;47.788;11.858;2023-03-01T00:45:40;-0.90;99.90
26990;DHT22;14537;47.788;11.858;2023-03-01T00:48:06;-0.90;99.90
26990;DHT22;14537;47.788;11.858;2023-03-01T00:50:32;-0.90;99.90
26990;DHT22;14537;47.788;11.858;2023-03-01T00:52:57;-1.00;99.90
26990;DHT22;14537;47.788;11.858;2023-03-01T00:55:23;-0.90;99.90
26990;DHT22;14537;47.788;11.858;2023-03-01T00:57:49;-0.90;99.90
26990;DHT22;14537;47.788;11.858;2023-03-01T01:00:15;-0.90;99.90
26990;DHT22;14537;47.788;11.858;2023-03-01T01:02:41;-0.90;99.90
26990;DHT22;14537;47.788;11.858;2023-03-01T01:05:07;-0.90;99.90
26990;DHT22;14537;47.788;11.858;2023-03-01T01:07:33;-0.90;99.90
26990;DHT22;14537;47.788;11.858;2023-03-01T01:09:59;-0.90;99.90
26990;DHT22;14537;47.788;11.858;2023-03-01T01:12:24;-0.90;99.90
26990;DHT22;14537;47.788;11.858;2023-03-01T01:14:50;-0.90;99.90
26990;DHT22;14537;47.788;11.858;2023-03-01T01:17:15;-0.90;99.90
26990;DHT22;14537;47.788;11.858;2023-03-01T01:19:41;-0.90;99.90
26990;DHT22;14537;47.788;11.858;2023-03-01T01:22:06;-0.90;99.90
26990;DHT22;14537;47.788;11.858;2023-03-01T01:24:32;-1.00;99.90
26990;DHT22;14537;47.788;11.858;2023-03-01T01:26:58;-1.00;99.90
26990;DHT22;14537;47.788;11.858;2023-03-01T01:29:23;-1.00;99.90
26990;DHT22;14537;47.788;11.858;2023-03-01T01:31:49;-1.00;99.90
26990;DHT22;14537;47.788;11.858;2023-03-01T01:34:17;-0.90;99.90
26990;DHT22;14537;47.788;11.858;2023-03-01T01:36:46;-0.90;99.90
26990;DHT22;14537;47.788;11.858;2023-03-01T01:39:12;-0.90;99.90
26990;DHT22;14537;47.788;11.858;2023-03-01T01:41:39;-1.00;99.90
26990;DHT22;14537;47.788;11.858;2023-03-01T01:44:33;-0.90;99.90
26990;DHT22;14537;47.788;11.858;2023-03-01T01:47:09;-0.90;99.90
26990;DHT22;14537;47.788;11.858;2023-03-01T01:49:44;-1.00;99.90
26990;DHT22;14537;47.788;11.858;2023-03-01T01:52:27;-1.00;99.90
26990;DHT22;14537;47.788;11.858;2023-03-01T01:54:58;-1.00;99.90
26990;DHT22;14537;47.788;11.858;2023-03-01T02:00:05;-1.00;99.90
26990;DHT22;14537;47.788;11.858;2023-03-01T02:02:31;-1.00;99.90
26990;DHT22;14537;47.788;11.858;2023-03-01T02:05:06;-1.00;99.90
26990;DHT22;14537;47.788;11.858;2023-03-01T02:07:38;-1.00;99.90
26990;DHT22;14537;47.788;11.858;2023-03-01T02:10:05;-1.00;99.90
26990;DHT22;14537;47.788;11.858;2023-03-01T02:12:31;-1.00;99.90
26990;DHT22;14537;47.788;11.858;2023-03-01T02:14:57;-1.00;99.90
26990;DHT22;14537;47.788;11.858;2023-03-01T02:17:23;-1.00;99.90
26990;DHT22;14537;47.788;11.858;2023-03-01T02:22:31;-1.10;99.90
26990;DHT22;14537;47.788;11.858;2023-03-01T02:25:09;-1.10;99.90
26990;DHT22;14537;47.788;11.858;2023-03-01T02:30:29;-1.10;99.90
26990;DHT22;14537;47.788;11.858;2023-03-01T02:32:58;-1.10;99.90
26990;DHT22;14537;47.788;11.858;2023-03-01T02:35:36;-1.10;99.90
26990;DHT22;14537;47.788;11.858;2023-03-01T02:38:05;-1.10;99.90
26990;DHT22;14537;47.788;11.858;2023-03-01T02:40:33;-1.10;99.90
26990;DHT22;14537;47.788;11.858;2023-03-01T02:42:59;-1.10;99.90
26990;DHT22;14537;47.788;11.858;2023-03-01T02:45:26;-1.10;99.90
26990;DHT22;14537;47.788;11.858;2023-03-01T02:47:56;-1.00;99.90
26990;DHT22;14537;47.788;11.858;2023-03-01T02:53:08;-1.10;99.90
26990;DHT22;14537;47.788;11.858;2023-03-01T02:55:34;-1.10;99.90
26990;DHT22;14537;47.788;11.858;2023-03-01T02:58:02;-1.10;99.90
26990;DHT22;14537;47.788;11.858;2023-03-01T03:00:36;-1.10;99.90
26990;DHT22;14537;47.788;11.858;2023-03-01T03:03:06;-1.10;99.90
26990;DHT22;14537;47.788;11.858;2023-03-01T03:05:33;-1.10;99.90
26990;DHT22;14537;47.788;11.858;2023-03-01T03:08:01;-1.10;99.90
26990;DHT22;14537;47.788;11.858;2023-03-01T03:10:32;-1.10;99.90
26990;DHT22;14537;47.788;11.858;2023-03-01T03:13:06;-1.10;99.90
26990;DHT22;14537;47.788;11.858;2023-03-01T03:15:32;-1.10;99.90
26990;DHT22;14537;47.788;11.858;2023-03-01T03:18:02;-1.10;99.90
26990;DHT22;14537;47.788;11.858;2023-03-01T03:20:28;-1.10;99.90
26990;DHT22;14537;47.788;11.858;2023-03-01T03:22:55;-1.10;99.90
26990;DHT22;14537;47.788;11.858;2023-03-01T03:25:22;-1.10;99.90
26990;DHT22;14537;47.788;11.858;2023-03-01T03:27:49;-1.10;99.90
26990;DHT22;14537;47.788;11.858;2023-03-01T03:30:18;-1.10;99.90
26990;DHT22;14537;47.788;11.858;2023-03-01T03:32:45;-1.10;99.90
26990;DHT22;14537;47.788;11.858;2023-03-01T03:37:51;-1.10;99.90
26990;DHT22;14537;47.788;11.858;2023-03-01T03:40:36;-1.10;99.90
26990;DHT22;14537;47.788;11.858;2023-03-01T03:43:05;-1.00;99.90
26990;DHT22;14537;47.788;11.858;2023-03-01T03:45:30;-1.10;99.90
26990;DHT22;14537;47.788;11.858;2023-03-01T03:47:59;-1.10;99.90
26990;DHT22;14537;47.788;11.858;2023-03-01T03:50:25;-1.10;99.90
26990;DHT22;14537;47.788;11.858;2023-03-01T03:52:51;-1.10;99.90
26990;DHT22;14537;47.788;11.858;2023-03-01T03:55:17;-1.10;99.90
26990;DHT22;14537;47.788;11.858;2023-03-01T03:57:45;-1.10;99.90
26990;DHT22;14537;47.788;11.858;2023-03-01T04:00:20;-1.10;99.90
26990;DHT22;14537;47.788;11.858;2023-03-01T04:02:47;-1.10;99.90
26990;DHT22;14537;47.788;11.858;2023-03-01T04:05:16;-1.10;99.90
26990;DHT22;14537;47.788;11.858;2023-03-01T04:07:43;-1.10;99.90
26990;DHT22;14537;47.788;11.858;2023-03-01T04:10:12;-1.10;99.90
26990;DHT22;14537;47.788;11.858;2023-03-01T04:12:38;-1.10;99.90
26990;DHT22;14537;47.788;11.858;2023-03-01T04:15:06;-1.10;99.90
26990;DHT22;14537;47.788;11.858;2023-03-01T04:17:47;-1.10;99.90
26990;DHT22;14537;47.788;11.858;2023-03-01T04:20:17;-1.10;99.90
26990;DHT22;14537;47.788;11.858;2023-03-01T04:22:43;-1.00;99.90
26990;DHT22;14537;47.788;11.858;2023-03-01T04:25:12;-1.00;99.90
26990;DHT22;14537;47.788;11.858;2023-03-01T04:27:40;-1.10;99.90
26990;DHT22;14537;47.788;11.858;2023-03-01T04:30:07;-1.10;99.90
26990;DHT22;14537;47.788;11.858;2023-03-01T04:32:33;-1.10;99.90
26990;DHT22;14537;47.788;11.858;2023-03-01T04:34:59;-1.10;99.90
26990;DHT22;14537;47.788;11.858;2023-03-01T04:37:25;-1.10;99.90
26990;DHT22;14537;47.788;11.858;2023-03-01T04:39:51;-1.10;99.90
26990;DHT22;14537;47.788;11.858;2023-03-01T04:42:17;-1.20;99.90
26990;DHT22;14537;47.788;11.858;2023-03-01T04:44:44;-1.10;99.90
26990;DHT22;14537;47.788;11.858;2023-03-01T04:47:09;-1.10;99.90
26990;DHT22;14537;47.788;11.858;2023-03-01T04:49:35;-1.20;99.90
26990;DHT22;14537;47.788;11.858;2023-03-01T04:52:01;-1.20;99.90
26990;DHT22;14537;47.788;11.858;2023-03-01T04:54:31;-1.20;99.90
26990;DHT22;14537;47.788;11.858;2023-03-01T04:56:58;-1.20;99.90
26990;DHT22;14537;47.788;11.858;2023-03-01T04:59:24;-1.20;99.90
26990;DHT22;14537;47.788;11.858;2023-03-01T05:01:54;-1.20;99.90
26990;DHT22;14537;47.788;11.858;2023-03-01T05:04:24;-1.20;99.90
26990;DHT22;14537;47.788;11.858;2023-03-01T05:06:50;-1.20;99.90
26990;DHT22;14537;47.788;11.858;2023-03-01T05:09:16;-1.20;99.90
26990;DHT22;14537;47.788;11.858;2023-03-01T05:11:42;-1.20;99.90
26990;DHT22;14537;47.788;11.858;2023-03-01T05:14:09;-1.20;99.90
26990;DHT22;14537;47.788;11.858;2023-03-01T05:16:35;-1.30;99.90
26990;DHT22;14537;47.788;11.858;2023-03-01T05:19:02;-1.30;99.90
26990;DHT22;14537;47.788;11.858;2023-03-01T05:21:37;-1.20;99.90
26990;DHT22;14537;47.788;11.858;2023-03-01T05:24:24;-1.30;99.90
26990;DHT22;14537;47.788;11.858;2023-03-01T05:26:50;-1.30;99.90
26990;DHT22;14537;47.788;11.858;2023-03-01T05:29:20;-1.30;99.90
26990;DHT22;14537;47.788;11.858;2023-03-01T05:32:00;-1.30;99.90
26990;DHT22;14537;47.788;11.858;2023-03-01T05:34:34;-1.40;99.90
26990;DHT22;14537;47.788;11.858;2023-03-01T05:37:01;-1.30;99.90
26990;DHT22;14537;47.788;11.858;2023-03-01T05:39:30;-1.30;99.90
26990;DHT22;14537;47.788;11.858;2023-03-01T05:41:58;-1.30;99.90
26990;DHT22;14537;47.788;11.858;2023-03-01T05:44:25;-1.30;99.90
26990;DHT22;14537;47.788;11.858;2023-03-01T05:46:51;-1.30;99.90
26990;DHT22;14537;47.788;11.858;2023-03-01T05:49:17;-1.30;99.90
26990;DHT22;14537;47.788;11.858;2023-03-01T05:51:47;-1.30;99.90
26990;DHT22;14537;47.788;11.858;2023-03-01T05:54:12;-1.30;99.90
26990;DHT22;14537;47.788;11.858;2023-03-01T05:56:38;-1.40;99.90
26990;DHT22;14537;47.788;11.858;2023-03-01T05:59:04;-1.40;99.90
26990;DHT22;14537;47.788;11.858;2023-03-01T06:01:31;-1.40;99.90
26990;DHT22;14537;47.788;11.858;2023-03-01T06:03:57;-1.40;99.90
26990;DHT22;14537;47.788;11.858;2023-03-01T06:06:23;-1.40;99.90
26990;DHT22;14537;47.788;11.858;2023-03-01T06:08:49;-1.40;99.90
26990;DHT22;14537;47.788;11.858;2023-03-01T06:11:15;-1.40;99.90
26990;DHT22;14537;47.788;11.858;2023-03-01T06:13:43;-1.50;99.90
26990;DHT22;14537;47.788;11.858;2023-03-01T06:16:09;-1.50;99.90
26990;DHT22;14537;47.788;11.858;2023-03-01T06:18:35;-1.50;99.90
26990;DHT22;14537;47.788;11.858;2023-03-01T06:21:01;-1.40;99.90
26990;DHT22;14537;47.788;11.858;2023-03-01T06:23:26;-1.40;99.90
26990;DHT22;14537;47.788;11.858;2023-03-01T06:25:52;-1.40;99.90
26990;DHT22;14537;47.788;11.858;2023-03-01T06:28:18;-1.40;99.90
26990;DHT22;14537;47.788;11.858;2023-03-01T06:30:43;-1.40;99.90
26990;DHT22;14537;47.788;11.858;2023-03-01T06:33:09;-1.40;99.90
26990;DHT22;14537;47.788;11.858;2023-03-01T06:35:35;-1.30;99.90
26990;DHT22;14537;47.788;11.858;2023-03-01T06:38:02;-1.30;99.90
26990;DHT22;14537;47.788;11.858;2023-03-01T06:40:29;-1.30;99.90
26990;DHT22;14537;47.788;11.858;2023-03-01T06:42:54;-1.30;99.90
26990;DHT22;14537;47.788;11.858;2023-03-01T06:45:21;-1.30;99.90
26990;DHT22;14537;47.788;11.858;2023-03-01T06:47:46;-1.30;99.90
26990;DHT22;14537;47.788;11.858;2023-03-01T06:50:13;-1.30;99.90
26990;DHT22;14537;47.788;11.858;2023-03-01T06:52:39;-1.30;99.90
26990;DHT22;14537;47.788;11.858;2023-03-01T06:55:05;-1.30;99.90
26990;DHT22;14537;47.788;11.858;2023-03-01T06:57:31;-1.30;99.90
26990;DHT22;14537;47.788;11.858;2023-03-01T06:59:57;-1.30;99.90
26990;DHT22;14537;47.788;11.858;2023-03-01T07:02:23;-1.30;99.90
26990;DHT22;14537;47.788;11.858;2023-03-01T07:04:49;-1.20;99.90
26990;DHT22;14537;47.788;11.858;2023-03-01T07:07:16;-1.20;99.90
26990;DHT22;14537;47.788;11.858;2023-03-01T07:09:44;-1.20;99.90
26990;DHT22;14537;47.788;11.858;2023-03-01T07:12:09;-1.20;99.90
26990;DHT22;14537;47.788;11.858;2023-03-01T07:14:35;-1.30;99.90
26990;DHT22;14537;47.788;11.858;2023-03-01T07:17:01;-1.30;99.90
26990;DHT22;14537;47.788;11.858;2023-03-01T07:19:27;-1.30;99.90
26990;DHT22;14537;47.788;11.858;2023-03-01T07:21:52;-1.20;99.90
26990;DHT22;14537;47.788;11.858;2023-03-01T07:24:18;-1.20;99.90
26990;DHT22;14537;47.788;11.858;2023-03-01T07:26:43;-1.20;99.90
26990;DHT22;14537;47.788;11.858;2023-03-01T07:29:10;-1.10;99.90
26990;DHT22;14537;47.788;11.858;2023-03-01T07:31:35;-1.10;99.90
26990;DHT22;14537;47.788;11.858;2023-03-01T07:34:02;-1.10;99.90
26990;DHT22;14537;47.788;11.858;2023-03-01T07:36:28;-1.10;99.90
26990;DHT22;14537;47.788;11.858;2023-03-01T07:38:53;-1.10;99.90
26990;DHT22;14537;47.788;11.858;2023-03-01T07:41:21;-1.10;99.90
26990;DHT22;14537;47.788;11.858;2023-03-01T07:43:47;-1.00;99.90
26990;DHT22;14537;47.788;11.858;2023-03-01T07:46:12;-1.10;99.90
26990;DHT22;14537;47.788;11.858;2023-03-01T07:48:38;-1.10;99.90
26990;DHT22;14537;47.788;11.858;2023-03-01T07:51:05;-1.00;99.90
26990;DHT22;14537;47.788;11.858;2023-03-01T07:53:32;-1.00;99.90
26990;DHT22;14537;47.788;11.858;2023-03-01T07:56:14;-1.00;99.90
26990;DHT22;14537;47.788;11.858;2023-03-01T07:58:42;-0.90;99.90
26990;DHT22;14537;47.788;11.858;2023-03-01T08:01:09;-0.90;99.90
26990;DHT22;14537;47.788;11.858;2023-03-01T08:03:36;-0.80;99.90
26990;DHT22;14537;47.788;11.858;2023-03-01T08:06:04;-0.80;99.90
26990;DHT22;14537;47.788;11.858;2023-03-01T08:08:30;-0.90;99.90
26990;DHT22;14537;47.788;11.858;2023-03-01T08:10:59;-0.80;99.90
26990;DHT22;14537;47.788;11.858;2023-03-01T08:13:26;-0.70;99.90
26990;DHT22;14537;47.788;11.858;2023-03-01T08:15:53;-0.70;99.90
26990;DHT22;14537;47.788;11.858;2023-03-01T08:18:19;-0.70;99.90
26990;DHT22;14537;47.788;11.858;2023-03-01T08:20:45;-0.70;99.90
26990;DHT22;14537;47.788;11.858;2023-03-01T08:23:11;-0.60;99.90
26990;DHT22;14537;47.788;11.858;2023-03-01T08:25:38;-0.60;99.90
26990;DHT22;14537;47.788;11.858;2023-03-01T08:28:03;-0.50;99.90
26990;DHT22;14537;47.788;11.858;2023-03-01T08:30:29;-0.50;99.90
26990;DHT22;14537;47.788;11.858;2023-03-01T08:32:55;-0.50;99.90
26990;DHT22;14537;47.788;11.858;2023-03-01T08:35:21;-0.50;99.90
26990;DHT22;14537;47.788;11.858;2023-03-01T08:37:46;-0.40;99.90
26990;DHT22;14537;47.788;11.858;2023-03-01T08:40:13;-0.40;99.90
26990;DHT22;14537;47.788;11.858;2023-03-01T08:42:40;-0.50;99.90
26990;DHT22;14537;47.788;11.858;2023-03-01T08:45:07;-0.40;99.90
26990;DHT22;14537;47.788;11.858;2023-03-01T08:47:32;-0.30;99.90
26990;DHT22;14537;47.788;11.858;2023-03-01T08:50:01;-0.20;99.90
26990;DHT22;14537;47.788;11.858;2023-03-01T08:52:27;-0.10;99.90
26990;DHT22;14537;47.788;11.858;2023-03-01T08:54:53;-0.10;99.90
26990;DHT22;14537;47.788;11.858;2023-03-01T08:57:19;0.00;99.90
26990;DHT22;14537;47.788;11.858;2023-03-01T08:59:45;0.00;99.90
26990;DHT22;14537;47.788;11.858;2023-03-01T09:02:16;0.10;99.90
26990;DHT22;14537;47.788;11.858;2023-03-01T09:04:42;0.20;99.90
26990;DHT22;14537;47.788;11.858;2023-03-01T09:07:08;0.10;99.90
26990;DHT22;14537;47.788;11.858;2023-03-01T09:09:34;0.30;99.90
26990;DHT22;14537;47.788;11.858;2023-03-01T09:12:00;0.40;99.90
26990;DHT22;14537;47.788;11.858;2023-03-01T09:14:26;0.60;99.90
26990;DHT22;14537;47.788;11.858;2023-03-01T09:16:52;0.70;99.90
26990;DHT22;14537;47.788;11.858;2023-03-01T09:19:17;0.70;99.90
26990;DHT22;14537;47.788;11.858;2023-03-01T09:21:43;0.70;99.90
26990;DHT22;14537;47.788;11.858;2023-03-01T09:24:20;0.80;99.90
26990;DHT22;14537;47.788;11.858;2023-03-01T09:26:46;0.90;99.90
26990;DHT22;14537;47.788;11.858;2023-03-01T09:29:13;0.90;99.90
26990;DHT22;14537;47.788;11.858;2023-03-01T09:31:39;0.90;99.90
26990;DHT22;14537;47.788;11.858;2023-03-01T09:34:06;1.00;99.90
26990;DHT22;14537;47.788;11.858;2023-03-01T09:36:32;1.10;99.90
26990;DHT22;14537;47.788;11.858;2023-03-01T09:38:58;1.00;99.90
26990;DHT22;14537;47.788;11.858;2023-03-01T09:41:45;1.20;99.90
26990;DHT22;14537;47.788;11.858;2023-03-01T09:44:28;1.20;99.90
26990;DHT22;14537;47.788;11.858;2023-03-01T09:46:57;1.10;99.90
26990;DHT22;14537;47.788;11.858;2023-03-01T09:49:33;1.00;99.90
26990;DHT22;14537;47.788;11.858;2023-03-01T09:52:21;1.10;99.90
26990;DHT22;14537;47.788;11.858;2023-03-01T09:54:52;1.20;99.90
26990;DHT22;14537;47.788;11.858;2023-03-01T09:57:37;1.20;99.90
26990;DHT22;14537;47.788;11.858;2023-03-01T10:03:17;1.20;99.90
26990;DHT22;14537;47.788;11.858;2023-03-01T10:06:04;1.20;99.90
26990;DHT22;14537;47.788;11.858;2023-03-01T10:08:46;1.20;99.90
26990;DHT22;14537;47.788;11.858;2023-03-01T10:11:37;1.10;99.90
26990;DHT22;14537;47.788;11.858;2023-03-01T10:16:51;1.10;99.90
26990;DHT22;14537;47.788;11.858;2023-03-01T10:24:55;1.10;99.90
26990;DHT22;14537;47.788;11.858;2023-03-01T10:32:57;1.20;99.90
26990;DHT22;14537;47.788;11.858;2023-03-01T10:35:29;1.30;99.90
26990;DHT22;14537;47.788;11.858;2023-03-01T10:40:23;1.20;99.90
26990;DHT22;14537;47.788;11.858;2023-03-01T10:42:49;1.20;99.90
26990;DHT22;14537;47.788;11.858;2023-03-01T10:45:32;1.30;99.90
26990;DHT22;14537;47.788;11.858;2023-03-01T10:50:29;1.30;99.90
26990;DHT22;14537;47.788;11.858;2023-03-01T10:53:03;1.30;99.90
26990;DHT22;14537;47.788;11.858;2023-03-01T10:55:34;1.40;99.90
26990;DHT22;14537;47.788;11.858;2023-03-01T11:00:51;1.50;99.90
26990;DHT22;14537;47.788;11.858;2023-03-01T11:03:33;1.50;99.90
26990;DHT22;14537;47.788;11.858;2023-03-01T11:08:37;1.80;99.90
26990;DHT22;14537;47.788;11.858;2023-03-01T11:11:14;1.80;99.90
26990;DHT22;14537;47.788;11.858;2023-03-01T11:14:02;1.90;99.90
26990;DHT22;14537;47.788;11.858;2023-03-01T11:16:40;1.80;99.90
26990;DHT22;14537;47.788;11.858;2023-03-01T11:21:39;1.90;99.90
26990;DHT22;14537;47.788;11.858;2023-03-01T11:24:10;1.80;99.90
26990;DHT22;14537;47.788;11.858;2023-03-01T11:26:40;1.70;99.90
26990;DHT22;14537;47.788;11.858;2023-03-01T11:29:16;1.80;99.90
26990;DHT22;14537;47.788;11.858;2023-03-01T11:31:43;1.90;99.90
26990;DHT22;14537;47.788;11.858;2023-03-01T11:34:15;1.90;99.90
26990;DHT22;14537;47.788;11.858;2023-03-01T11:36:54;1.90;99.90
26990;DHT22;14537;47.788;11.858;2023-03-01T11:42:34;2.00;99.90
26990;DHT22;14537;47.788;11.858;2023-03-01T11:45:08;2.00;99.90
26990;DHT22;14537;47.788;11.858;2023-03-01T11:48:17;1.90;99.90
26990;DHT22;14537;47.788;11.858;2023-03-01T11:50:48;1.80;99.90
26990;DHT22;14537;47.788;11.858;2023-03-01T11:56:08;1.80;99.90
26990;DHT22;14537;47.788;11.858;2023-03-01T12:10:29;2.00;99.90
26990;DHT22;14537;47.788;11.858;2023-03-01T12:13:58;2.10;99.90
26990;DHT22;14537;47.788;11.858;2023-03-01T12:16:26;1.80;99.90
26990;DHT22;14537;47.788;11.858;2023-03-01T12:22:01;2.00;99.90
26990;DHT22;14537;47.788;11.858;2023-03-01T12:24:46;2.00;99.90
26990;DHT22;14537;47.788;11.858;2023-03-01T12:35:45;1.60;99.90
26990;DHT22;14537;47.788;11.858;2023-03-01T12:41:10;1.80;99.90
26990;DHT22;14537;47.788;11.858;2023-03-01T12:49:05;1.90;99.90
26990;DHT22;14537;47.788;11.858;2023-03-01T12:51:34;2.00;99.90
26990;DHT22;14537;47.788;11.858;2023-03-01T12:54:15;2.00;99.90
26990;DHT22;14537;47.788;11.858;2023-03-01T12:56:42;2.10;99.90
26990;DHT22;14537;47.788;11.858;2023-03-01T13:02:07;2.20;99.90
26990;DHT22;14537;47.788;11.858;2023-03-01T13:07:55;2.30;99.90
26990;DHT22;14537;47.788;11.858;2023-03-01T13:10:48;2.30;99.90
26990;DHT22;14537;47.788;11.858;2023-03-01T13:13:23;2.20;99.90
26990;DHT22;14537;47.788;11.858;2023-03-01T13:15:49;2.30;99.90
26990;DHT22;14537;47.788;11.858;2023-03-01T13:23:23;2.40;99.90
26990;DHT22;14537;47.788;11.858;2023-03-01T13:26:16;2.50;99.90
26990;DHT22;14537;47.788;11.858;2023-03-01T13:33:47;2.50;99.90
26990;DHT22;14537;47.788;11.858;2023-03-01T13:41:51;2.20;99.90
26990;DHT22;14537;47.788;11.858;2023-03-01T13:46:51;2.20;99.90
26990;DHT22;14537;47.788;11.858;2023-03-01T13:49:23;2.10;99.90
26990;DHT22;14537;47.788;11.858;2023-03-01T13:51:51;2.10;99.90
26990;DHT22;14537;47.788;11.858;2023-03-01T13:54:29;2.00;99.90
26990;DHT22;14537;47.788;11.858;2023-03-01T13:56:58;2.10;99.90
26990;DHT22;14537;47.788;11.858;2023-03-01T13:59:24;2.10;99.90
26990;DHT22;14537;47.788;11.858;2023-03-01T14:02:00;2.10;99.90
26990;DHT22;14537;47.788;11.858;2023-03-01T14:04:28;2.30;99.90
26990;DHT22;14537;47.788;11.858;2023-03-01T14:09:40;2.50;99.90
26990;DHT22;14537;47.788;11.858;2023-03-01T14:20:31;3.00;99.90
26990;DHT22;14537;47.788;11.858;2023-03-01T14:23:00;3.10;99.90
26990;DHT22;14537;47.788;11.858;2023-03-01T14:25:35;3.10;99.90
26990;DHT22;14537;47.788;11.858;2023-03-01T14:30:43;3.10;99.90
26990;DHT22;14537;47.788;11.858;2023-03-01T14:33:30;3.30;99.90
26990;DHT22;14537;47.788;11.858;2023-03-01T14:36:12;3.40;99.90
26990;DHT22;14537;47.788;11.858;2023-03-01T14:41:14;3.40;99.90
26990;DHT22;14537;47.788;11.858;2023-03-01T14:43:46;3.30;99.90
26990;DHT22;14537;47.788;11.858;2023-03-01T14:46:21;3.40;99.90
26990;DHT22;14537;47.788;11.858;2023-03-01T14:48:54;3.30;99.90
26990;DHT22;14537;47.788;11.858;2023-03-01T14:51:21;3.30;99.90
26990;DHT22;14537;47.788;11.858;2023-03-01T14:53:47;3.20;99.90
26990;DHT22;14537;47.788;11.858;2023-03-01T14:56:16;3.20;99.90
26990;DHT22;14537;47.788;11.858;2023-03-01T14:58:45;3.20;99.90
26990;DHT22;14537;47.788;11.858;2023-03-01T15:01:17;3.30;99.90
26990;DHT22;14537;47.788;11.858;2023-03-01T15:03:47;3.20;99.90
26990;DHT22;14537;47.788;11.858;2023-03-01T15:06:21;3.20;99.90
26990;DHT22;14537;47.788;11.858;2023-03-01T15:08:50;3.20;99.90
26990;DHT22;14537;47.788;11.858;2023-03-01T15:11:29;3.10;99.90
26990;DHT22;14537;47.788;11.858;2023-03-01T15:13:55;3.10;99.90
26990;DHT22;14537;47.788;11.858;2023-03-01T15:16:22;3.10;99.90
26990;DHT22;14537;47.788;11.858;2023-03-01T15:18:53;3.10;99.90
26990;DHT22;14537;47.788;11.858;2023-03-01T15:21:25;2.90;99.90
26990;DHT22;14537;47.788;11.858;2023-03-01T15:24:07;2.90;99.90
26990;DHT22;14537;47.788;11.858;2023-03-01T15:26:42;3.00;99.90
26990;DHT22;14537;47.788;11.858;2023-03-01T15:29:17;3.00;99.90
26990;DHT22;14537;47.788;11.858;2023-03-01T15:31:43;3.00;99.90
26990;DHT22;14537;47.788;11.858;2023-03-01T15:34:23;3.00;99.90
26990;DHT22;14537;47.788;11.858;2023-03-01T15:36:51;3.00;99.90
26990;DHT22;14537;47.788;11.858;2023-03-01T15:41:53;2.90;99.90
26990;DHT22;14537;47.788;11.858;2023-03-01T15:44:30;2.80;99.90
26990;DHT22;14537;47.788;11.858;2023-03-01T15:46:56;2.70;99.90
26990;DHT22;14537;47.788;11.858;2023-03-01T15:49:40;2.70;99.90
26990;DHT22;14537;47.788;11.858;2023-03-01T15:52:13;2.60;99.90
26990;DHT22;14537;47.788;11.858;2023-03-01T15:54:40;2.50;99.90
26990;DHT22;14537;47.788;11.858;2023-03-01T15:57:12;2.40;99.90
26990;DHT22;14537;47.788;11.858;2023-03-01T15:59:40;2.30;99.90
26990;DHT22;14537;47.788;11.858;2023-03-01T16:02:11;2.10;99.90
26990;DHT22;14537;47.788;11.858;2023-03-01T16:04:38;2.10;99.90
26990;DHT22;14537;47.788;11.858;2023-03-01T16:07:04;2.00;99.90
26990;DHT22;14537;47.788;11.858;2023-03-01T16:09:29;2.00;99.90
26990;DHT22;14537;47.788;11.858;2023-03-01T16:11:55;1.90;99.90
26990;DHT22;14537;47.788;11.858;2023-03-01T16:14:21;1.80;99.90
26990;DHT22;14537;47.788;11.858;2023-03-01T16:16:47;1.80;99.90
26990;DHT22;14537;47.788;11.858;2023-03-01T16:19:14;1.80;99.90
26990;DHT22;14537;47.788;11.858;2023-03-01T16:21:40;1.70;99.90
26990;DHT22;14537;47.788;11.858;2023-03-01T16:24:08;1.60;99.90
26990;DHT22;14537;47.788;11.858;2023-03-01T16:26:34;1.50;99.90
26990;DHT22;14537;47.788;11.858;2023-03-01T16:29:01;1.40;99.90
26990;DHT22;14537;47.788;11.858;2023-03-01T16:31:27;1.40;99.90
26990;DHT22;14537;47.788;11.858;2023-03-01T16:33:55;1.30;99.90
26990;DHT22;14537;47.788;11.858;2023-03-01T16:36:21;1.20;99.90
26990;DHT22;14537;47.788;11.858;2023-03-01T16:38:49;1.10;99.90
26990;DHT22;14537;47.788;11.858;2023-03-01T16:41:17;1.00;99.90
26990;DHT22;14537;47.788;11.858;2023-03-01T16:43:43;0.80;99.90
26990;DHT22;14537;47.788;11.858;2023-03-01T16:46:13;0.70;99.90
26990;DHT22;14537;47.788;11.858;2023-03-01T16:48:39;0.60;99.90
26990;DHT22;14537;47.788;11.858;2023-03-01T16:51:06;0.60;99.90
26990;DHT22;14537;47.788;11.858;2023-03-01T16:53:36;0.50;99.90
26990;DHT22;14537;47.788;11.858;2023-03-01T16:56:05;0.40;99.90
26990;DHT22;14537;47.788;11.858;2023-03-01T16:58:31;0.10;99.90
26990;DHT22;14537;47.788;11.858;2023-03-01T17:01:04;-0.10;99.90
26990;DHT22;14537;47.788;11.858;2023-03-01T17:03:30;-0.30;99.90
26990;DHT22;14537;47.788;11.858;2023-03-01T17:05:56;-0.40;99.90
26990;DHT22;14537;47.788;11.858;2023-03-01T17:08:22;-0.50;99.90
26990;DHT22;14537;47.788;11.858;2023-03-01T17:10:47;-0.50;99.90
26990;DHT22;14537;47.788;11.858;2023-03-01T17:13:13;-0.60;99.90
26990;DHT22;14537;47.788;11.858;2023-03-01T17:15:40;-0.70;99.90
26990;DHT22;14537;47.788;11.858;2023-03-01T17:18:07;-0.70;99.90
26990;DHT22;14537;47.788;11.858;2023-03-01T17:20:33;-0.80;99.90
26990;DHT22;14537;47.788;11.858;2023-03-01T17:22:58;-0.90;99.90
26990;DHT22;14537;47.788;11.858;2023-03-01T17:25:24;-1.00;99.90
26990;DHT22;14537;47.788;11.858;2023-03-01T17:27:50;-0.90;99.90
26990;DHT22;14537;47.788;11.858;2023-03-01T17:30:16;-1.00;99.90
26990;DHT22;14537;47.788;11.858;2023-03-01T17:32:42;-1.30;99.90
26990;DHT22;14537;47.788;11.858;2023-03-01T17:35:08;-1.40;99.90
26990;DHT22;14537;47.788;11.858;2023-03-01T17:37:36;-1.50;99.90
26990;DHT22;14537;47.788;11.858;2023-03-01T17:40:04;-1.70;99.90
26990;DHT22;14537;47.788;11.858;2023-03-01T17:42:30;-1.70;99.90